Time;durP1;ratioP1;P1;durP2;ratioP2;P2;SDS_P1;SDS_P2;PMS_P1;PMS_P2;Temp;Humidity;BMP_temperature;BMP_pressure;BME280_temperature;BME280_humidity;BME280_pressure;Samples;Min_cycle;Max_cycle;Signal;HPM_P1;HPM_P2
2022/08/22 00:00:20;;;;;;;0.30;0.30;;;17.50;99.90;;;;;;5086635;28;20059;-81
2022/08/22 00:02:52;;;;;;;0.40;0.40;;;17.60;99.90;;;;;;5088532;28;20081;-80
2022/08/22 00:05:35;;;;;;;0.40;0.40;;;17.50;99.90;;;;;;5090801;28;20035;-80
2022/08/22 00:08:11;;;;;;;0.40;0.40;;;17.50;99.90;;;;;;5089025;28;20180;-81
2022/08/22 00:11:05;;;;;;;0.40;0.40;;;17.50;99.90;;;;;;5092071;28;20039;-81
2022/08/22 00:13:54;;;;;;;0.52;0.52;;;17.40;99.90;;;;;;5092623;28;20183;-81
2022/08/22 00:16:31;;;;;;;0.40;0.40;;;17.30;99.90;;;;;;5090153;28;20143;-81
2022/08/22 00:19:47;;;;;;;0.35;0.35;;;17.20;99.90;;;;;;5089602;27;20050;-80
2022/08/22 00:22:19;;;;;;;0.30;0.30;;;17.30;99.90;;;;;;5089602;28;20707;-80
2022/08/22 00:24:53;;;;;;;0.30;0.30;;;17.30;99.90;;;;;;5092183;28;20057;-80
2022/08/22 00:27:23;;;;;;;;;;;17.20;99.90;;;;;;5089966;28;20051;-80
2022/08/22 00:30:07;;;;;;;0.30;0.30;;;17.20;99.90;;;;;;5108449;27;19927;-80
2022/08/22 00:32:44;;;;;;;0.38;0.38;;;17.10;99.90;;;;;;5095998;27;20151;-80
2022/08/22 00:35:35;;;;;;;0.30;0.30;;;17.00;99.90;;;;;;5109137;27;20535;-80
2022/08/22 00:38:20;;;;;;;0.30;0.30;;;17.00;99.90;;;;;;5109524;27;20046;-80
2022/08/22 00:41:23;;;;;;;0.30;0.30;;;17.00;99.90;;;;;;5110294;27;20043;-80
2022/08/22 00:44:19;;;;;;;0.40;0.40;;;17.00;99.90;;;;;;5092423;27;20039;-80
2022/08/22 00:46:55;;;;;;;0.40;0.40;;;17.00;99.90;;;;;;5110064;27;20043;-80
2022/08/22 00:49:32;;;;;;;0.30;0.30;;;17.00;99.90;;;;;;5111282;27;21176;-80
2022/08/22 00:52:13;;;;;;;0.30;0.30;;;16.90;99.90;;;;;;5109262;27;20050;-80
2022/08/22 00:54:55;;;;;;;0.40;0.40;;;16.90;99.90;;;;;;5104178;27;20129;-80
2022/08/22 00:57:42;;;;;;;0.40;0.40;;;16.90;99.90;;;;;;5108947;27;20443;-80
2022/08/22 01:00:20;;;;;;;0.30;0.30;;;16.90;99.90;;;;;;5112311;27;20519;-80
2022/08/22 01:03:14;;;;;;;0.40;0.40;;;17.00;99.90;;;;;;5058810;27;20163;-81
2022/08/22 01:05:59;;;;;;;0.40;0.40;;;17.00;99.90;;;;;;5112410;27;20519;-81
2022/08/22 01:08:49;;;;;;;0.40;0.40;;;17.00;99.90;;;;;;5111787;27;20051;-81
2022/08/22 01:11:28;;;;;;;0.35;0.35;;;17.00;99.90;;;;;;5112605;27;20511;-80
2022/08/22 01:14:09;;;;;;;0.40;0.40;;;17.00;99.90;;;;;;5093771;27;20129;-80
2022/08/22 01:16:54;;;;;;;0.35;0.35;;;17.00;99.90;;;;;;5090596;27;20242;-80
2022/08/22 01:19:38;;;;;;;0.30;0.30;;;17.00;99.90;;;;;;5090788;27;20047;-81
2022/08/22 01:22:23;;;;;;;2.13;0.50;;;17.00;99.90;;;;;;5091922;27;20043;-80
2022/08/22 01:25:17;;;;;;;0.40;0.40;;;17.00;99.90;;;;;;5103812;27;20051;-81
2022/08/22 01:27:49;;;;;;;0.30;0.30;;;17.00;99.90;;;;;;5107290;27;20154;-81
2022/08/22 01:30:33;;;;;;;0.43;0.43;;;17.00;99.90;;;;;;5090990;27;20074;-80
2022/08/22 01:33:17;;;;;;;0.40;0.40;;;17.00;99.90;;;;;;5089806;27;20050;-80
2022/08/22 01:35:45;;;;;;;0.38;0.38;;;17.00;99.90;;;;;;5091054;27;20039;-80
2022/08/22 01:38:54;;;;;;;0.40;0.40;;;16.90;99.90;;;;;;5110339;27;20099;-80
2022/08/22 01:41:56;;;;;;;0.30;0.30;;;16.80;99.90;;;;;;5061384;27;20059;-80
2022/08/22 01:44:31;;;;;;;0.32;0.32;;;16.80;99.90;;;;;;5107196;27;20051;-80
2022/08/22 01:47:01;;;;;;;0.40;0.40;;;16.80;99.90;;;;;;5089203;27;20089;-80
2022/08/22 01:49:40;;;;;;;0.30;0.30;;;16.70;99.90;;;;;;5107429;27;20043;-80
2022/08/22 01:52:33;;;;;;;0.40;0.40;;;16.60;99.90;;;;;;5090819;27;20488;-80
2022/08/22 01:55:25;;;;;;;0.40;0.40;;;16.60;99.90;;;;;;5091073;27;20061;-80
2022/08/22 01:57:54;;;;;;;0.30;0.30;;;16.60;99.90;;;;;;5109618;27;20612;-80
2022/08/22 02:00:22;;;;;;;0.40;0.40;;;16.60;99.90;;;;;;5090252;28;20054;-80
2022/08/22 02:03:00;;;;;;;0.40;0.40;;;16.70;99.90;;;;;;5073635;28;20047;-81
2022/08/22 02:05:35;;;;;;;0.30;0.30;;;16.80;99.90;;;;;;5091328;28;20058;-80
2022/08/22 02:09:05;;;;;;;0.40;0.40;;;16.70;99.90;;;;;;5090741;27;20061;-81
2022/08/22 02:11:39;;;;;;;0.40;0.40;;;16.60;99.90;;;;;;5078608;27;20124;-80
2022/08/22 02:14:39;;;;;;;0.40;0.40;;;16.60;99.90;;;;;;5095569;27;20050;-80
2022/08/22 02:17:21;;;;;;;0.40;0.40;;;16.60;99.90;;;;;;5113719;27;20802;-80
2022/08/22 02:19:50;;;;;;;0.40;0.40;;;16.50;99.90;;;;;;5094874;27;20051;-80
2022/08/22 02:22:34;;;;;;;0.40;0.40;;;16.50;99.90;;;;;;5112599;27;20099;-80
2022/08/22 02:25:03;;;;;;;;;;;16.50;99.90;;;;;;5112761;27;20700;-80
2022/08/22 02:27:35;;;;;;;0.40;0.40;;;16.50;99.90;;;;;;5094651;27;20404;-80
2022/08/22 02:30:13;;;;;;;0.40;0.40;;;16.40;99.90;;;;;;5091472;27;20066;-80
2022/08/22 02:33:07;;;;;;;0.40;0.40;;;16.40;99.90;;;;;;5095016;27;20130;-80
2022/08/22 02:35:46;;;;;;;0.30;0.30;;;16.50;99.90;;;;;;5093701;27;20043;-80
2022/08/22 02:38:27;;;;;;;0.40;0.40;;;16.60;99.90;;;;;;5091946;27;20102;-80
2022/08/22 02:41:05;;;;;;;0.40;0.40;;;16.60;99.90;;;;;;5096722;27;20051;-80
2022/08/22 02:43:58;;;;;;;0.30;0.30;;;16.70;99.90;;;;;;5112946;27;20195;-80
2022/08/22 02:46:42;;;;;;;0.40;0.40;;;16.70;99.90;;;;;;5092872;27;20047;-80
2022/08/22 02:49:25;;;;;;;0.30;0.30;;;16.70;99.90;;;;;;5092196;27;20043;-80
2022/08/22 02:52:02;;;;;;;0.30;0.30;;;16.70;99.90;;;;;;5095021;27;20480;-80
2022/08/22 02:54:44;;;;;;;0.40;0.40;;;16.70;99.90;;;;;;5097089;27;20121;-80
2022/08/22 02:57:18;;;;;;;0.40;0.40;;;16.70;99.90;;;;;;5114625;27;20455;-80
2022/08/22 03:00:16;;;;;;;0.40;0.40;;;16.70;99.90;;;;;;5092574;27;20042;-80
2022/08/22 03:02:43;;;;;;;0.30;0.30;;;16.70;99.90;;;;;;5095008;27;20475;-79
2022/08/22 03:05:24;;;;;;;0.40;0.40;;;16.80;99.90;;;;;;5094929;27;20550;-80
2022/08/22 03:08:01;;;;;;;0.30;0.30;;;16.90;99.90;;;;;;5112968;27;20092;-79
2022/08/22 03:10:35;;;;;;;0.30;0.30;;;16.90;99.90;;;;;;5112591;27;20454;-80
2022/08/22 03:13:15;;;;;;;0.30;0.30;;;16.90;99.90;;;;;;5092650;27;20051;-80
2022/08/22 03:15:48;;;;;;;0.35;0.35;;;16.90;99.90;;;;;;5113470;27;20857;-80
2022/08/22 03:18:42;;;;;;;0.32;0.32;;;16.90;99.90;;;;;;5094047;27;20927;-80
2022/08/22 03:21:22;;;;;;;0.40;0.40;;;16.80;99.90;;;;;;5093157;27;20096;-80
2022/08/22 03:24:02;;;;;;;0.30;0.30;;;16.80;99.90;;;;;;5093755;27;20554;-80
2022/08/22 03:26:54;;;;;;;0.40;0.40;;;16.80;99.90;;;;;;5094571;27;20384;-80
2022/08/22 03:29:43;;;;;;;0.40;0.40;;;16.70;99.90;;;;;;5093996;27;20375;-79
2022/08/22 03:32:14;;;;;;;0.30;0.30;;;16.60;99.90;;;;;;5110520;27;20404;-79
2022/08/22 03:35:03;;;;;;;0.38;0.38;;;16.60;99.90;;;;;;5093974;27;20540;-80
2022/08/22 03:37:36;;;;;;;0.32;0.32;;;16.50;99.90;;;;;;5093169;27;20474;-79
2022/08/22 03:40:33;;;;;;;0.40;0.40;;;16.50;99.90;;;;;;5093526;27;20043;-79
2022/08/22 03:43:23;;;;;;;0.40;0.40;;;16.60;99.90;;;;;;5092276;27;20088;-80
2022/08/22 03:46:07;;;;;;;0.40;0.40;;;16.60;99.90;;;;;;5091333;27;20507;-80
2022/08/22 03:49:01;;;;;;;0.40;0.40;;;16.60;99.90;;;;;;5094093;27;20047;-80
2022/08/22 03:51:41;;;;;;;0.30;0.30;;;16.70;99.90;;;;;;5111595;27;20035;-79
2022/08/22 03:54:29;;;;;;;0.75;0.43;;;16.60;99.90;;;;;;5091810;27;20379;-80
2022/08/22 03:57:15;;;;;;;0.30;0.30;;;16.70;99.90;;;;;;5090873;27;20047;-80
2022/08/22 03:59:53;;;;;;;0.38;0.38;;;16.70;99.90;;;;;;5104822;27;20086;-81
2022/08/22 04:02:26;;;;;;;0.40;0.40;;;16.70;99.90;;;;;;5110914;27;20372;-80
2022/08/22 04:05:29;;;;;;;0.40;0.40;;;16.60;99.90;;;;;;5094267;27;20051;-79
2022/08/22 04:08:16;;;;;;;0.40;0.40;;;16.60;99.90;;;;;;5081013;27;20051;-79
2022/08/22 04:11:07;;;;;;;0.30;0.30;;;16.60;99.90;;;;;;5091291;27;20055;-80
2022/08/22 04:13:54;;;;;;;0.40;0.40;;;16.70;99.90;;;;;;5079597;27;20043;-80
2022/08/22 04:16:59;;;;;;;0.40;0.40;;;16.70;99.90;;;;;;5091096;27;20054;-80
2022/08/22 04:19:47;;;;;;;0.40;0.40;;;16.70;99.90;;;;;;5089023;27;20042;-79
2022/08/22 04:22:21;;;;;;;0.40;0.40;;;16.60;99.90;;;;;;5110932;27;20046;-79
2022/08/22 04:25:00;;;;;;;0.40;0.40;;;16.60;99.90;;;;;;5093473;27;20051;-79
2022/08/22 04:27:47;;;;;;;0.40;0.40;;;16.70;99.90;;;;;;5091350;27;20480;-79
2022/08/22 04:30:39;;;;;;;0.30;0.30;;;16.70;99.90;;;;;;5091442;27;20959;-80
2022/08/22 04:33:14;;;;;;;0.30;0.30;;;16.70;99.90;;;;;;5091047;27;20293;-80
2022/08/22 04:35:51;;;;;;;0.40;0.40;;;16.70;99.90;;;;;;5111462;27;20047;-80
2022/08/22 04:38:29;;;;;;;0.55;0.40;;;16.70;99.90;;;;;;5093384;27;20141;-80
2022/08/22 04:41:04;;;;;;;0.40;0.40;;;16.80;99.90;;;;;;5111448;27;20076;-80
2022/08/22 04:43:56;;;;;;;0.40;0.40;;;16.80;99.90;;;;;;5091567;27;20051;-80
2022/08/22 04:46:25;;;;;;;0.40;0.40;;;16.80;99.90;;;;;;5090778;27;20105;-80
2022/08/22 04:49:06;;;;;;;0.47;0.47;;;16.70;99.90;;;;;;5093719;27;20035;-80
2022/08/22 04:51:44;;;;;;;0.40;0.40;;;16.80;99.90;;;;;;5111749;27;20073;-80
2022/08/22 04:54:21;;;;;;;0.50;0.50;;;16.80;99.90;;;;;;5093046;27;20085;-80
2022/08/22 04:57:37;;;;;;;0.30;0.30;;;16.80;99.90;;;;;;5093108;27;20050;-80
2022/08/22 05:00:06;;;;;;;0.40;0.40;;;16.90;99.90;;;;;;5055000;27;20059;-80
2022/08/22 05:02:36;;;;;;;0.40;0.40;;;17.00;99.90;;;;;;5108111;27;20062;-80
2022/08/22 05:05:13;;;;;;;0.40;0.40;;;17.00;99.90;;;;;;5092523;27;20051;-80
2022/08/22 05:07:45;;;;;;;0.40;0.40;;;17.00;99.90;;;;;;5109914;27;21171;-80
2022/08/22 05:10:31;;;;;;;0.30;0.30;;;17.00;99.90;;;;;;5091216;27;20078;-80
2022/08/22 05:13:05;;;;;;;0.35;0.35;;;17.00;99.90;;;;;;5109240;27;20040;-80
2022/08/22 05:15:35;;;;;;;0.30;0.30;;;17.10;99.90;;;;;;5092631;27;20075;-80
2022/08/22 05:18:08;;;;;;;0.30;0.30;;;17.20;99.90;;;;;;5089854;27;20662;-80
2022/08/22 05:20:37;;;;;;;0.80;0.77;;;17.20;99.90;;;;;;5090426;27;20047;-80
2022/08/22 05:23:27;;;;;;;0.40;0.40;;;17.30;99.90;;;;;;5091247;27;20058;-80
2022/08/22 05:25:58;;;;;;;0.40;0.40;;;17.40;99.90;;;;;;5075533;27;20058;-80
2022/08/22 05:28:34;;;;;;;0.40;0.40;;;17.50;99.90;;;;;;5089879;27;20055;-80
2022/08/22 05:31:14;;;;;;;0.30;0.30;;;17.50;99.90;;;;;;5092399;27;20043;-80
2022/08/22 05:34:32;;;;;;;0.40;0.40;;;17.60;99.90;;;;;;5110924;27;20051;-80
2022/08/22 05:37:19;;;;;;;0.40;0.40;;;17.60;99.90;;;;;;5074686;27;20051;-80
2022/08/22 05:39:49;;;;;;;0.30;0.30;;;17.60;99.90;;;;;;5103228;27;20053;-80
2022/08/22 05:42:33;;;;;;;0.30;0.30;;;17.60;99.90;;;;;;5090853;27;20398;-80
2022/08/22 05:45:05;;;;;;;0.40;0.40;;;17.60;99.90;;;;;;5090882;27;20138;-80
2022/08/22 05:47:52;;;;;;;0.40;0.40;;;17.70;99.90;;;;;;5105992;27;20545;-80
2022/08/22 05:50:44;;;;;;;0.40;0.40;;;17.70;99.90;;;;;;5109999;27;20035;-80
2022/08/22 05:53:16;;;;;;;0.30;0.30;;;17.70;99.90;;;;;;5086610;27;20066;-80
2022/08/22 05:56:11;;;;;;;0.40;0.40;;;17.80;99.90;;;;;;5091563;27;20088;-80
2022/08/22 05:58:52;;;;;;;0.40;0.40;;;17.80;99.90;;;;;;5091229;27;20059;-80
2022/08/22 06:01:32;;;;;;;0.40;0.40;;;17.70;99.90;;;;;;5089454;27;20100;-80
2022/08/22 06:04:28;;;;;;;0.40;0.40;;;17.70;99.90;;;;;;5088957;28;20039;-80
2022/08/22 06:07:05;;;;;;;0.40;0.40;;;17.80;99.90;;;;;;5075745;28;20058;-81
2022/08/22 06:09:37;;;;;;;0.40;0.40;;;17.80;99.90;;;;;;5107196;28;20123;-80
2022/08/22 06:12:25;;;;;;;0.40;0.40;;;17.80;99.90;;;;;;5090507;28;20099;-80
2022/08/22 06:14:58;;;;;;;0.43;0.43;;;17.80;99.90;;;;;;5087376;28;21250;-80
2022/08/22 06:17:33;;;;;;;0.40;0.40;;;17.80;99.90;;;;;;5086060;28;20047;-80
2022/08/22 06:19:59;;;;;;;0.40;0.40;;;18.00;99.90;;;;;;5088196;28;20058;-80
2022/08/22 06:22:32;;;;;;;0.30;0.30;;;17.90;99.90;;;;;;5090817;28;20777;-80
2022/08/22 06:25:13;;;;;;;0.40;0.40;;;18.00;99.90;;;;;;5088960;28;20047;-81
2022/08/22 06:27:41;;;;;;;0.40;0.40;;;18.10;99.90;;;;;;5090445;28;20051;-79
2022/08/22 06:30:11;;;;;;;0.38;0.38;;;18.10;99.90;;;;;;5085888;28;20127;-80
2022/08/22 06:32:47;;;;;;;0.40;0.40;;;18.10;99.90;;;;;;5087034;28;20088;-80
2022/08/22 06:35:28;;;;;;;0.30;0.30;;;18.10;99.90;;;;;;5087314;28;20052;-80
2022/08/22 06:37:58;;;;;;;0.40;0.40;;;18.10;99.90;;;;;;5090328;28;20051;-81
2022/08/22 06:40:26;;;;;;;0.40;0.40;;;18.30;99.90;;;;;;5089215;28;20055;-80
2022/08/22 06:42:53;;;;;;;0.40;0.40;;;18.40;99.90;;;;;;5090784;28;20055;-80
2022/08/22 06:45:29;;;;;;;0.40;0.40;;;18.30;99.90;;;;;;5087480;28;20076;-80
2022/08/22 06:48:04;;;;;;;0.40;0.40;;;18.40;99.90;;;;;;5089735;28;20055;-81
2022/08/22 06:50:39;;;;;;;0.30;0.30;;;18.40;99.90;;;;;;5087048;28;20042;-80
2022/08/22 06:53:16;;;;;;;0.32;0.32;;;18.50;99.90;;;;;;5087251;28;20128;-79
2022/08/22 06:55:47;;;;;;;0.43;0.40;;;18.70;99.90;;;;;;5071397;28;20080;-80
2022/08/22 06:58:17;;;;;;;0.30;0.30;;;18.70;99.90;;;;;;5088034;28;20050;-79
2022/08/22 07:00:45;;;;;;;0.40;0.40;;;18.80;99.90;;;;;;5094577;28;20074;-80
2022/08/22 07:03:36;;;;;;;0.40;0.40;;;18.90;99.90;;;;;;5092925;28;20046;-80
2022/08/22 07:06:03;;;;;;;0.40;0.40;;;18.80;99.90;;;;;;5077063;28;20047;-80
2022/08/22 07:08:33;;;;;;;0.30;0.30;;;18.80;99.90;;;;;;5090747;28;20118;-80
2022/08/22 07:11:49;;;;;;;0.40;0.40;;;18.80;99.90;;;;;;5095481;27;20044;-80
2022/08/22 07:14:23;;;;;;;0.43;0.43;;;18.90;99.90;;;;;;5046312;28;20070;-79
2022/08/22 07:17:04;;;;;;;0.40;0.40;;;18.90;99.90;;;;;;5083295;28;20551;-80
2022/08/22 07:19:44;;;;;;;0.30;0.30;;;19.00;99.90;;;;;;5091109;28;20111;-79
2022/08/22 07:22:15;;;;;;;0.30;0.30;;;19.00;99.90;;;;;;5092310;28;20096;-80
2022/08/22 07:24:48;;;;;;;0.30;0.30;;;19.10;99.90;;;;;;5092728;28;20050;-80
2022/08/22 07:27:36;;;;;;;0.30;0.30;;;19.10;99.90;;;;;;5094242;28;20404;-80
2022/08/22 07:30:12;;;;;;;0.30;0.30;;;19.20;99.90;;;;;;5108312;27;20099;-80
2022/08/22 07:33:00;;;;;;;0.30;0.30;;;19.30;99.90;;;;;;5093366;27;20058;-80
2022/08/22 07:35:27;;;;;;;0.30;0.30;;;19.40;99.90;;;;;;5094827;27;20803;-80
2022/08/22 07:38:00;;;;;;;0.30;0.30;;;19.50;99.90;;;;;;5094132;27;20043;-81
2022/08/22 07:40:55;;;;;;;0.30;0.30;;;19.60;99.90;;;;;;5092465;27;20047;-80
2022/08/22 07:43:30;;;;;;;;;;;19.60;99.90;;;;;;5094117;27;20496;-80
2022/08/22 07:46:02;;;;;;;0.30;0.30;;;19.70;99.90;;;;;;5094014;27;19927;-80
2022/08/22 07:48:32;;;;;;;0.40;0.40;;;19.80;99.90;;;;;;5094445;27;20515;-80
2022/08/22 07:51:11;;;;;;;0.30;0.30;;;19.90;99.90;;;;;;5093831;27;20070;-80
2022/08/22 07:53:54;;;;;;;0.40;0.40;;;19.80;99.90;;;;;;5093950;27;20048;-81
2022/08/22 07:56:25;;;;;;;0.30;0.30;;;19.90;99.90;;;;;;5110576;27;20055;-81
2022/08/22 07:59:13;;;;;;;0.30;0.30;;;19.90;99.90;;;;;;5093379;27;20062;-80
2022/08/22 08:01:45;;;;;;;0.30;0.30;;;19.80;99.90;;;;;;5091770;27;20050;-80
2022/08/22 08:04:17;;;;;;;0.35;0.35;;;19.80;99.90;;;;;;5085801;27;20937;-80
2022/08/22 08:06:47;;;;;;;0.30;0.30;;;19.90;99.90;;;;;;5086890;27;20154;-81
2022/08/22 08:09:14;;;;;;;0.40;0.40;;;19.80;99.90;;;;;;5081237;27;20579;-81
2022/08/22 08:11:42;;;;;;;0.30;0.30;;;19.80;99.90;;;;;;5067765;27;20083;-81
2022/08/22 08:14:11;;;;;;;0.30;0.30;;;19.80;99.90;;;;;;5093811;27;20035;-80
2022/08/22 08:16:46;;;;;;;0.38;0.38;;;19.70;99.90;;;;;;5079233;27;20138;-81
2022/08/22 08:19:15;;;;;;;0.40;0.40;;;19.60;99.90;;;;;;5093402;27;20065;-81
2022/08/22 08:21:50;;;;;;;0.30;0.30;;;19.70;99.90;;;;;;5111333;27;20516;-82
2022/08/22 08:24:22;;;;;;;0.30;0.30;;;19.80;99.90;;;;;;5094038;27;20169;-81
2022/08/22 08:29:53;;;;;;;0.30;0.30;;;20.10;99.90;;;;;;5088096;28;20489;-81
2022/08/22 08:32:22;;;;;;;0.30;0.30;;;20.10;99.90;;;;;;5090946;28;20266;-80
2022/08/22 08:34:49;;;;;;;0.30;0.30;;;20.30;99.90;;;;;;5092733;28;20075;-81
2022/08/22 08:37:21;;;;;;;0.40;0.40;;;20.40;99.90;;;;;;5092614;28;20576;-80
2022/08/22 08:39:50;;;;;;;0.30;0.30;;;20.40;99.90;;;;;;5092115;28;20476;-81
2022/08/22 08:42:28;;;;;;;0.30;0.30;;;20.50;99.90;;;;;;5094374;27;20051;-79
2022/08/22 08:45:18;;;;;;;0.30;0.30;;;20.60;99.90;;;;;;5090899;28;20089;-80
2022/08/22 08:48:02;;;;;;;0.30;0.30;;;20.70;99.90;;;;;;5081970;28;20525;-81
2022/08/22 08:51:13;;;;;;;0.30;0.30;;;21.00;99.90;;;;;;5088734;28;20042;-81
2022/08/22 08:54:16;;;;;;;0.30;0.30;;;20.90;99.90;;;;;;5089663;28;20067;-80
2022/08/22 08:57:18;;;;;;;0.30;0.30;;;20.60;99.90;;;;;;5090212;28;20452;-80
2022/08/22 09:00:06;;;;;;;0.30;0.30;;;20.80;99.90;;;;;;5091889;28;20047;-79
2022/08/22 09:02:50;;;;;;;0.30;0.30;;;21.10;99.90;;;;;;5089061;28;20047;-81
2022/08/22 09:05:39;;;;;;;0.38;0.38;;;21.10;99.90;;;;;;5091326;28;21847;-80
2022/08/22 09:08:29;;;;;;;0.38;0.38;;;21.60;99.90;;;;;;5038578;28;20105;-78
2022/08/22 09:11:18;;;;;;;0.35;0.35;;;21.60;99.90;;;;;;5088765;28;20312;-79
2022/08/22 09:13:50;;;;;;;0.30;0.30;;;21.70;99.90;;;;;;5090795;28;20052;-80
2022/08/22 09:16:15;;;;;;;0.30;0.30;;;21.80;99.90;;;;;;5089759;28;20468;-82
2022/08/22 09:18:58;;;;;;;0.30;0.30;;;21.70;99.90;;;;;;5071168;28;20055;-81
2022/08/22 09:21:40;;;;;;;0.30;0.30;;;21.90;99.90;;;;;;5089016;28;20059;-81
2022/08/22 09:24:28;;;;;;;0.30;0.30;;;21.40;99.90;;;;;;5089313;28;20054;-81
2022/08/22 09:27:00;;;;;;;0.30;0.30;;;21.30;99.90;;;;;;5088723;28;20079;-81
2022/08/22 09:29:41;;;;;;;0.30;0.30;;;21.10;99.90;;;;;;5086538;28;20098;-80
2022/08/22 09:32:19;;;;;;;0.30;0.30;;;21.30;99.90;;;;;;5088440;28;20055;-80
2022/08/22 09:34:55;;;;;;;0.30;0.30;;;21.40;99.90;;;;;;5085648;28;20519;-81
2022/08/22 09:37:39;;;;;;;0.30;0.30;;;21.70;99.90;;;;;;5088974;28;20059;-81
2022/08/22 09:40:21;;;;;;;0.30;0.30;;;21.70;99.90;;;;;;5088607;28;20056;-82
2022/08/22 09:43:07;;;;;;;0.30;0.30;;;21.70;99.90;;;;;;5090615;28;20126;-81
2022/08/22 09:46:07;;;;;;;0.30;0.30;;;21.20;99.90;;;;;;5087215;28;20032;-81
2022/08/22 09:48:47;;;;;;;0.30;0.30;;;21.30;99.90;;;;;;5088601;28;20100;-80
2022/08/22 09:51:47;;;;;;;0.30;0.30;;;21.30;99.90;;;;;;5084805;28;20054;-80
2022/08/22 09:54:43;;;;;;;0.30;0.30;;;21.40;99.90;;;;;;5090624;28;20377;-80
2022/08/22 09:57:25;;;;;;;0.30;0.30;;;21.90;99.90;;;;;;5085590;28;20043;-82
2022/08/22 10:00:12;;;;;;;0.30;0.30;;;22.20;99.90;;;;;;5084612;28;20047;-79
2022/08/22 10:03:10;;;;;;;0.30;0.30;;;22.30;99.90;;;;;;5087715;28;20155;-79
2022/08/22 10:06:06;;;;;;;0.30;0.30;;;22.30;99.90;;;;;;5066548;28;20093;-80
2022/08/22 10:09:00;;;;;;;0.30;0.30;;;21.90;99.90;;;;;;5088299;28;20036;-80
2022/08/22 10:11:32;;;;;;;0.30;0.30;;;22.50;99.90;;;;;;5087299;28;20568;-81
2022/08/22 10:14:14;;;;;;;0.30;0.30;;;22.20;99.90;;;;;;5088278;28;20035;-81
2022/08/22 10:16:49;;;;;;;0.30;0.30;;;22.30;99.90;;;;;;5086580;28;20488;-81
2022/08/22 10:19:27;;;;;;;0.30;0.30;;;22.10;99.90;;;;;;5088051;28;20082;-80
2022/08/22 10:22:15;;;;;;;0.40;0.40;;;22.60;99.90;;;;;;5088812;28;20160;-80
2022/08/22 10:25:12;;;;;;;0.30;0.30;;;23.00;99.90;;;;;;5087807;28;20071;-79
2022/08/22 10:27:52;;;;;;;0.30;0.30;;;22.90;99.90;;;;;;5086421;28;20415;-81
2022/08/22 10:30:23;;;;;;;0.25;0.25;;;23.00;99.90;;;;;;5073448;28;20052;-79
2022/08/22 10:32:55;;;;;;;0.30;0.30;;;23.00;99.90;;;;;;5092491;28;20059;-81
2022/08/22 10:35:42;;;;;;;0.30;0.30;;;23.30;99.90;;;;;;5087287;28;20053;-80
2022/08/22 10:38:19;;;;;;;0.22;0.22;;;23.00;99.90;;;;;;5092027;28;20688;-80
2022/08/22 10:40:55;;;;;;;0.30;0.30;;;23.60;99.90;;;;;;5092691;28;20047;-80
2022/08/22 10:43:41;;;;;;;0.30;0.30;;;23.40;99.90;;;;;;5092904;28;20073;-81
2022/08/22 10:46:18;;;;;;;0.30;0.30;;;23.60;99.90;;;;;;5088743;28;20123;-82
2022/08/22 10:49:12;;;;;;;0.30;0.30;;;23.70;99.90;;;;;;5093440;28;20079;-81
2022/08/22 10:51:54;;;;;;;0.30;0.30;;;23.40;99.90;;;;;;5089767;28;20076;-81
2022/08/22 10:54:36;;;;;;;0.30;0.30;;;24.40;99.90;;;;;;5094238;28;20047;-83
2022/08/22 10:57:29;;;;;;;0.30;0.30;;;24.30;99.90;;;;;;5091636;28;21050;-80
2022/08/22 11:00:53;;;;;;;0.30;0.30;;;24.20;99.90;;;;;;5092098;28;20150;-81
2022/08/22 11:03:27;;;;;;;0.30;0.30;;;24.30;99.90;;;;;;5090738;28;20514;-80
2022/08/22 11:05:59;;;;;;;0.30;0.30;;;24.90;99.90;;;;;;5093162;28;20055;-78
2022/08/22 11:08:36;;;;;;;0.40;0.40;;;25.20;99.90;;;;;;5092986;28;20039;-80
2022/08/22 11:11:19;;;;;;;0.30;0.30;;;24.10;99.90;;;;;;5090645;28;20051;-79
2022/08/22 11:13:57;;;;;;;0.20;0.20;;;24.10;99.90;;;;;;5090731;28;20450;-79
2022/08/22 11:16:54;;;;;;;0.30;0.30;;;24.20;99.90;;;;;;5090685;28;20499;-80
2022/08/22 11:19:45;;;;;;;0.30;0.30;;;24.30;99.90;;;;;;5090001;28;20047;-78
2022/08/22 11:22:47;;;;;;;0.20;0.20;;;24.90;99.90;;;;;;5092580;28;20048;-80
2022/08/22 11:25:20;;;;;;;0.30;0.30;;;25.20;99.90;;;;;;5033754;28;20051;-80
2022/08/22 11:28:21;;;;;;;0.28;0.28;;;25.60;99.90;;;;;;5089002;28;20047;-81
2022/08/22 11:31:24;;;;;;;0.20;0.20;;;25.60;99.90;;;;;;5112059;27;20059;-83
2022/08/22 11:34:17;;;;;;;0.30;0.30;;;24.80;99.90;;;;;;5112377;27;20130;-78
2022/08/22 11:36:53;;;;;;;0.30;0.30;;;25.20;99.90;;;;;;5095238;27;20056;-82
2022/08/22 11:39:57;;;;;;;0.20;0.20;;;25.40;99.90;;;;;;5093378;27;20047;-81
2022/08/22 11:42:50;;;;;;;0.30;0.30;;;25.70;99.90;;;;;;5094208;27;20050;-80
2022/08/22 11:45:24;;;;;;;0.30;0.30;;;25.50;99.90;;;;;;5095495;27;20047;-82
2022/08/22 11:47:55;;;;;;;0.30;0.30;;;25.70;99.90;;;;;;5096783;27;20043;-82
2022/08/22 11:50:37;;;;;;;0.20;0.20;;;25.40;99.90;;;;;;5093061;27;20740;-80
2022/08/22 11:53:25;;;;;;;0.30;0.30;;;25.90;99.90;;;;;;5093397;27;20043;-82
2022/08/22 11:56:38;;;;;;;0.30;0.30;;;26.40;99.90;;;;;;5092753;27;20122;-80
2022/08/22 11:59:06;;;;;;;0.20;0.20;;;26.20;99.90;;;;;;5090965;27;20137;-82
2022/08/22 12:01:46;;;;;;;0.30;0.30;;;26.00;99.90;;;;;;5093465;27;20156;-84
2022/08/22 12:04:29;;;;;;;0.30;0.30;;;26.00;99.90;;;;;;5113496;27;20671;-81
2022/08/22 12:07:16;;;;;;;0.30;0.30;;;25.10;99.90;;;;;;5094151;27;20558;-82
2022/08/22 12:09:55;;;;;;;0.30;0.30;;;25.30;99.90;;;;;;5094434;27;20047;-79
2022/08/22 12:12:49;;;;;;;0.30;0.30;;;25.30;99.90;;;;;;5113443;27;20050;-82
2022/08/22 12:15:43;;;;;;;0.30;0.30;;;25.70;99.90;;;;;;5093919;27;20047;-81
2022/08/22 12:18:20;;;;;;;0.30;0.30;;;25.50;99.90;;;;;;5062117;27;20162;-82
2022/08/22 12:21:26;;;;;;;0.28;0.28;;;24.90;99.90;;;;;;5095661;27;20108;-80
2022/08/22 12:24:13;;;;;;;0.30;0.30;;;25.30;99.90;;;;;;5093130;27;20051;-81
2022/08/22 12:26:39;;;;;;;0.25;0.25;;;25.40;99.90;;;;;;5093182;27;20487;-81
2022/08/22 12:29:31;;;;;;;0.30;0.30;;;25.90;99.90;;;;;;5091728;27;20058;-81
2022/08/22 12:32:32;;;;;;;0.30;0.30;;;25.60;99.90;;;;;;5092837;27;20054;-80
2022/08/22 12:35:26;;;;;;;0.30;0.30;;;25.40;99.90;;;;;;5094315;27;20529;-81
2022/08/22 12:38:20;;;;;;;0.30;0.30;;;24.90;99.90;;;;;;5094116;27;20051;-79
2022/08/22 12:41:33;;;;;;;0.30;0.30;;;25.20;99.90;;;;;;5098256;27;20070;-80
2022/08/22 12:44:27;;;;;;;0.30;0.30;;;25.10;99.90;;;;;;5087697;27;20103;-81
2022/08/22 12:47:21;;;;;;;0.30;0.30;;;25.20;99.90;;;;;;5092838;27;20050;-81
2022/08/22 12:50:14;;;;;;;0.30;0.30;;;25.80;99.90;;;;;;5093933;27;20157;-82
2022/08/22 12:52:58;;;;;;;0.30;0.30;;;26.10;99.90;;;;;;5072768;27;20050;-82
2022/08/22 12:55:27;;;;;;;0.30;0.30;;;26.40;99.90;;;;;;5092249;27;20047;-83
2022/08/22 12:58:21;;;;;;;0.30;0.30;;;26.60;99.90;;;;;;5073776;27;20097;-82
2022/08/22 13:00:48;;;;;;;0.20;0.20;;;26.20;99.90;;;;;;5091724;27;20125;-80
2022/08/22 13:03:28;;;;;;;0.20;0.20;;;25.70;99.90;;;;;;5057009;27;20069;-80
2022/08/22 13:05:57;;;;;;;0.30;0.30;;;26.00;99.90;;;;;;5086617;27;20039;-81
2022/08/22 13:08:37;;;;;;;0.30;0.30;;;26.00;99.90;;;;;;5084063;27;20039;-81
2022/08/22 13:11:09;;;;;;;0.20;0.20;;;25.40;99.90;;;;;;5085692;27;20058;-81
2022/08/22 13:13:43;;;;;;;0.30;0.30;;;25.50;99.90;;;;;;5104136;27;20077;-83
2022/08/22 13:16:11;;;;;;;;;;;25.20;99.90;;;;;;5088187;27;20055;-82
2022/08/22 13:18:59;;;;;;;0.30;0.30;;;25.60;99.90;;;;;;5080335;27;19928;-82
2022/08/22 13:21:41;;;;;;;0.30;0.30;;;25.80;99.90;;;;;;5101718;27;20047;-83
2022/08/22 13:24:55;;;;;;;0.30;0.30;;;25.70;99.90;;;;;;5086787;27;20484;-82
2022/08/22 13:27:27;;;;;;;0.30;0.30;;;25.70;99.90;;;;;;5055692;27;20863;-82
2022/08/22 13:30:21;;;;;;;0.20;0.20;;;25.30;99.90;;;;;;5108583;27;20050;-84
2022/08/22 13:32:52;;;;;;;0.30;0.30;;;25.70;99.90;;;;;;5056076;27;20135;-81
2022/08/22 13:35:51;;;;;;;0.30;0.30;;;25.30;99.90;;;;;;5095597;27;20058;-84
2022/08/22 13:38:27;;;;;;;0.30;0.30;;;25.20;99.90;;;;;;5108802;27;20046;-81
2022/08/22 13:40:57;;;;;;;0.30;0.30;;;25.70;99.90;;;;;;5111144;27;20078;-82
2022/08/22 13:43:28;;;;;;;0.30;0.30;;;25.90;99.90;;;;;;5109489;27;20103;-81
2022/08/22 13:46:07;;;;;;;0.25;0.25;;;25.90;99.90;;;;;;5089041;27;20047;-81
2022/08/22 13:48:49;;;;;;;0.30;0.30;;;25.40;99.90;;;;;;5090913;27;20046;-81
2022/08/22 13:51:27;;;;;;;0.20;0.20;;;25.20;99.90;;;;;;5092852;27;20126;-81
2022/08/22 13:54:02;;;;;;;0.30;0.30;;;25.40;99.90;;;;;;5093816;27;20121;-82
2022/08/22 13:56:50;;;;;;;0.20;0.20;;;26.00;99.90;;;;;;5090440;27;20047;-80
2022/08/22 13:59:34;;;;;;;0.30;0.30;;;26.50;99.90;;;;;;5091058;27;20051;-82
2022/08/22 14:02:14;;;;;;;0.20;0.20;;;26.70;99.90;;;;;;5072487;27;20724;-82
2022/08/22 14:04:41;;;;;;;0.30;0.30;;;26.80;99.90;;;;;;5107496;27;20043;-81
2022/08/22 14:07:10;;;;;;;0.30;0.30;;;27.00;99.90;;;;;;5090188;28;20062;-83